Islip Terrace, New York
Current Conditions -  °F | °C
As of 5:56 PM on Monday 24 Nov 2014 (Local Time) from KISP Reporting Station
Few Clouds Few Clouds  
Wind Chill: 59°   Ceiling: Unl
Heat Index: 59°   Visibility: 10mi
Dew Point: 55°   Wind: 18mph
Humidity: 87%   Direction: 220°SW
Pressure: 29.67"   Gusts: 29mph
Location:  40.75°N, 73.19°W
Report Text: KISP 242256Z 22016G25KT 10SM FEW012 FEW055 15/13 A2967 RMK AO2 PK WND 22029/2221 SLP047 T01500128
Loading
Personal Weather Stations






























Interactive Weather Map New forecast layout! Learn more

10-Day Weather Forecast

Advertisements
Track Severe Weather on mobile